• Join FlightAware (Why Join?)
  • Login
  • US Flag 
08:35AM EDT


 

Airport Tracker/Info


-or-


 

Live Flight TrackerFlight Track Log ✈ RPA3321 ✈ 10-Jun-2013 ✈ KALB - KDCA

Flight Track Log - Related Links

Times and Time Zones

All times are in EDT time to prevent confusion due to time zone crossing. See the RPA3321 flight status page for this flight to view local times or setup timezone preferences in your user account.

Time Position Orientation Groundspeed Altitude Reporting Facility
EDT Latitude Longitude Course Direction KTS MPH feet Rate Location/Type
06:06AM 42.7714 -73.8092 166° South 157 181 1,200  Level Boston Center
06:07AM 42.7967 -73.7956 22° Northeast 182 209 2,200 1,860 Climbing Boston Center
06:08AM 42.3440 -73.2483 134° Southeast  Level FlightAware Approximate
06:08AM 42.7642 -73.7297 124° Southeast 243 280 4,300  Level Boston Center
06:09AM 42.2106 -73.0658 135° Southeast  Level FlightAware Approximate
06:09AM 42.7231 -73.6750 136° Southeast 298 343 5,900  Level Boston Center
06:10AM 42.0832 -72.8764 130° Southeast  Level FlightAware Approximate
06:10AM 42.6592 -73.5947 137° Southeast 303 349 8,100  Level Boston Center
06:11AM 41.9466 -72.6993 138° Southeast  Level FlightAware Approximate
06:11AM 42.6036 -73.5261 138° Southeast 291 335 10,800  Level Boston Center
06:12AM 41.7675 -72.6225 166° South  Level FlightAware Approximate
06:12AM 42.5294 -73.4289 136° Southeast 314 361 13,500  Level Boston Center
06:13AM 42.4656 -73.3492 137° Southeast 347 399 16,000 2,340 Climbing Boston Center
06:14AM 42.3831 -73.2439 137° Southeast 358 412 18,200 2,100 Climbing Boston Center
06:15AM 42.3044 -73.1503 139° Southeast 373 429 20,300 1,980 Climbing Boston Center
06:16AM 42.2258 -73.0486 136° Southeast 385 443 22,200 1,740 Climbing Boston Center
06:17AM 42.1408 -72.9414 137° Southeast 398 458 23,800 1,620 Climbing Boston Center
06:18AM 42.0581 -72.8289 135° Southeast 410 472 25,500 1,080 Climbing Boston Center
06:19AM 41.9728 -72.7222 137° Southeast 423 487 26,000 240 Climbing Boston Center
06:20AM 41.8750 -72.6575 154° Southeast 400 460 26,000  Level Boston Center
06:21AM 41.7731 -72.6128 162° South 387 445 26,000  Level Boston Center
06:22AM 41.6689 -72.5622 160° South 387 445 26,000  Level Boston Center
06:23AM 41.5667 -72.5150 161° South 392 451 26,000  Level Boston Center
06:24AM 41.4667 -72.4678 161° South 392 451 26,000  Level Boston Center
06:25AM 41.3606 -72.4594 177° South 371 427 26,000  Level Boston Center
06:26AM 41.2728 -72.5311 212° Southwest 355 409 26,000  Level Boston Center
06:27AM 41.1853 -72.6111 215° Southwest 367 422 26,000  Level Boston Center
06:28AM 41.0997 -72.6881 214° Southwest 372 428 26,000  Level Boston Center
06:29AM 41.0308 -72.7483 213° Southwest 378 435 26,000  Level Boston Center
06:30AM 40.9283 -72.8383 214° Southwest 378 435 26,000  Level Boston Center
06:31AM 40.8364 -72.9203 214° Southwest 384 442 26,000  Level Boston Center
06:32AM 40.7400 -73.0044 213° Southwest 404 465 26,000  Level Boston Center
06:33AM 40.6439 -73.0856 213° Southwest 409 471 26,000  Level Boston Center
06:34AM 40.5494 -73.1667 213° Southwest 414 476 26,000  Level Boston Center
06:35AM 40.4511 -73.2472 212° Southwest 421 484 26,000  Level Boston Center
06:36AM 40.3608 -73.3333 216° Southwest 421 484 26,000  Level Boston Center
06:37AM 40.2664 -73.4136 213° Southwest 416 479 26,000  Level Boston Center
06:39AM 40.0614 -73.5883 213° Southwest 406 467 26,000  Level Washington Center
06:40AM 39.9667 -73.6667 212° Southwest 406 467 26,000  Level Washington Center
06:41AM 39.8764 -73.7475 215° Southwest 411 473 26,000  Level Washington Center
06:42AM 39.7817 -73.8258 212° Southwest 411 473 26,000  Level Washington Center
06:43AM 39.6869 -73.9064 213° Southwest 411 473 26,000  Level Washington Center
06:44AM 39.5922 -73.9839 212° Southwest 411 473 26,000  Level Washington Center
06:45AM 39.4994 -74.0639 214° Southwest 405 466 26,000  Level Washington Center
06:46AM 39.4047 -74.1439 213° Southwest 410 472 26,000 -60 Level Washington Center
06:47AM 39.3097 -74.2236 213° Southwest 410 472 25,900 -1,080 Descending Washington Center
06:48AM 39.2167 -74.3003 213° Southwest 410 472 23,900 -2,040 Descending Washington Center
06:49AM 39.1300 -74.3742 213° Southwest 398 458 21,900 -2,040 Descending Washington Center
06:50AM 39.0453 -74.4450 213° Southwest 385 443 19,900 -1,980 Descending Washington Center
06:51AM 38.9606 -74.5211 215° Southwest 380 437 18,000 -960 Descending Washington Center
06:52AM 38.9239 -74.6364 248° West 351 404 18,000 -360 Level Washington Center
06:53AM 38.8936 -74.7728 254° West 357 411 17,300 -1,200 Descending Washington Center
06:54AM 38.8694 -74.8958 256° West 357 411 15,700 -1,560 Descending Washington Center
06:55AM 38.8492 -75.0106 257° West 343 395 14,200 -840 Descending Washington Center
06:56AM 38.8269 -75.1253 256° West 338 389 14,000 -120 Descending Washington Center
06:57AM 38.8064 -75.2400 257° West 338 389 14,000  Level Washington Center
06:58AM 38.8006 -75.3653 267° West 338 389 14,000  Level Washington Center
06:59AM 38.7922 -75.4825 265° West 338 389 14,000  Level Washington Center
07:00AM 38.7861 -75.6022 266° West 338 389 14,000  Level Washington Center
07:01AM 38.7797 -75.7222 266° West 338 389 14,000 -180 Level Washington Center
07:02AM 38.7692 -75.8419 264° West 343 395 13,700 -900 Descending Washington Center
07:03AM 38.7628 -75.9617 266° West 343 395 12,200 -1,380 Descending Washington Center
07:04AM 38.7539 -76.0736 264° West 338 389 11,000 -660 Descending Washington Center
07:05AM 38.7597 -76.1853 274° West 332 382 11,000  Level Washington Center
07:06AM 38.7717 -76.2972 278° West 332 382 11,000  Level Washington Center
07:07AM 38.7814 -76.4092 276° West 327 376 11,000 -360 Level Washington Center
07:07AM 38.7833 -76.4500 274° West 281 323 10,600 -840 Descending Potomac TRACON
07:08AM 38.8000 -76.5500 282° West 275 316 10,000 -300 Descending Potomac TRACON
07:09AM 38.8000 -76.6333 270° West 273 314 10,000  Level Potomac TRACON
07:10AM 38.8000 -76.7333 270° West 272 313 10,000  Level Potomac TRACON
07:11AM 38.8333 -76.8167 297° West 265 305 10,000  Level Potomac TRACON
07:12AM 38.8667 -76.8833 303° West 266 306 10,000 -120 Level Potomac TRACON
07:13AM 38.9167 -76.9500 314° West 231 266 9,800 -900 Descending Potomac TRACON
07:14AM 38.9500 -77.0000 311° West 225 259 8,400 -1,560 Descending Potomac TRACON
07:15AM 39.0000 -77.0500 322° Northwest 217 250 6,700 -1,740 Descending Potomac TRACON
07:16AM 39.0333 -77.1167 303° West 209 241 5,000 -1,440 Descending Potomac TRACON
07:17AM 39.0167 -77.1667 247° West 161 185 3,900 -1,080 Descending Potomac TRACON
07:18AM 38.9833 -77.1500 159° South 171 197 3,000 -840 Descending Potomac TRACON
07:19AM 38.9500 -77.1167 142° Southeast 175 201 2,400 -600 Descending Potomac TRACON